Flight Track Log - Related Links

Times and Time Zones

All times are in EDT time to prevent confusion due to time zone crossing. See the N847NN flight status page for this flight to view local times or setup timezone preferences in your user account.

Time Position Orientation Groundspeed Altitude Reporting Facility
EDT Latitude Longitude Course Direction KTS MPH feet Rate Location/Type
Wed 04:47:32 PM 25.7399 -80.2507 352° North  Level FlightAware Approximate
Wed 04:47:43 PM 25.8006 -80.2606 148° Southeast 174 200 800  Level Miami Center
Wed 04:52:02 PM 25.6175 -80.1358 214° Southwest 269 310 6,900 1,192 Climbing Miami Center
Wed 04:52:55 PM 25.5644 -80.1758 155° Southeast 268 308 7,000 1,100 Climbing Miami Center
Wed 04:54:02 PM 25.4881 -80.1369 145° Southeast 281 323 9,100 2,220 Climbing Miami Center
Wed 04:55:02 PM 25.4222 -80.0867 158° South 286 329 11,700 2,500 Climbing Miami Center
Wed 04:56:02 PM 25.3456 -80.0525 161° South 286 329 14,100 2,350 Climbing Miami Center
Wed 04:57:02 PM 25.2606 -80.0206 161° South 298 343 16,400 2,250 Climbing Miami Center
Wed 04:58:02 PM 25.1758 -79.9883 162° South 312 359 18,600 2,100 Climbing Miami Center
Wed 04:59:02 PM 25.0886 -79.9564 161° South 323 372 20,600 1,900 Climbing Miami Center
Wed 05:00:02 PM 24.9975 -79.9219 160° South 328 377 22,400 1,700 Climbing Miami Center
Wed 05:01:02 PM 24.9186 -79.8903 162° South 335 386 24,000 1,650 Climbing Miami Center
Wed 05:02:02 PM 24.8275 -79.8583 161° South 340 391 25,700 1,400 Climbing Miami Center
Wed 05:03:02 PM 24.7319 -79.8217 151° Southeast 347 399 26,800 1,150 Climbing Miami Center
Wed 05:04:02 PM 24.6411 -79.7669 150° Southeast 360 414 28,000 1,250 Climbing Miami Center
Wed 05:05:02 PM 24.5483 -79.7075 151° Southeast 375 432 29,300 1,150 Climbing Miami Center
Wed 05:06:02 PM 24.4511 -79.6483 163° South 386 444 30,300 600 Climbing Miami Center
Wed 05:07:02 PM 24.3475 -79.6142 162° South 386 444 30,500 250 Climbing Miami Center
Wed 05:08:02 PM 24.2311 -79.5728 163° South 410 472 30,800 300 Climbing Miami Center
Wed 05:09:02 PM 24.1108 -79.5314 164° South 437 503 31,100 500 Climbing Miami Center
Wed 05:10:02 PM 23.9839 -79.4903 163° South 461 531 31,800 700 Climbing Miami Center
Wed 05:17:32 PM 23.1346 -79.2143 164° South  Level FlightAware Approximate
Wed 05:18:32 PM 23.0187 -79.1786 164° South  Level FlightAware Approximate
Wed 05:19:32 PM 22.9029 -79.1430 164° South  Level FlightAware Approximate
Wed 05:20:32 PM 22.7871 -79.1074 164° South  Level FlightAware Approximate
Wed 05:21:32 PM 22.6712 -79.0718 164° South  Level FlightAware Approximate
Wed 05:22:32 PM 22.5553 -79.0363 164° South  Level FlightAware Approximate
Wed 05:23:32 PM 22.4395 -79.0009 164° South  Level FlightAware Approximate
Wed 05:24:32 PM 22.3236 -78.9656 164° South  Level FlightAware Approximate
Wed 05:25:32 PM 22.2077 -78.9303 164° South  Level FlightAware Approximate
Wed 05:26:32 PM 22.0918 -78.8950 164° South  Level FlightAware Approximate
Wed 05:27:32 PM 21.9793 -78.8608 164° South  Level FlightAware Approximate
Wed 05:28:32 PM 21.8667 -78.8267 164° South  Level FlightAware Approximate
Wed 05:29:32 PM 21.7542 -78.7927 142° Southeast  Level FlightAware Approximate
Wed 05:30:32 PM 21.6623 -78.7154 165° South  Level FlightAware Approximate
Wed 05:31:32 PM 21.5494 -78.6826 165° South  Level FlightAware Approximate
Wed 05:32:32 PM 21.4366 -78.6499 165° South  Level FlightAware Approximate
Wed 05:33:32 PM 21.3237 -78.6172 165° South  Level FlightAware Approximate
Wed 05:34:32 PM 21.2108 -78.5846 165° South  Level FlightAware Approximate
Wed 05:35:32 PM 21.0979 -78.5520 165° South  Level FlightAware Approximate
Wed 05:36:32 PM 20.9849 -78.5195 165° South  Level FlightAware Approximate
Wed 05:37:32 PM 20.8720 -78.4870 165° South  Level FlightAware Approximate
Wed 05:38:32 PM 20.7591 -78.4546 165° South  Level FlightAware Approximate
Wed 05:39:32 PM 20.6462 -78.4222 165° South  Level FlightAware Approximate
Wed 05:40:32 PM 20.5332 -78.3898 165° South  Level FlightAware Approximate
Wed 05:41:32 PM 20.4203 -78.3576 165° South  Level FlightAware Approximate
Wed 05:42:32 PM 20.3074 -78.3253 165° South  Level FlightAware Approximate
Wed 05:43:32 PM 20.1944 -78.2931 165° South  Level FlightAware Approximate
Wed 05:44:32 PM 20.0814 -78.2610 165° South  Level FlightAware Approximate
Wed 05:45:32 PM 19.9685 -78.2289 164° South  Level FlightAware Approximate
Wed 05:46:32 PM 19.8560 -78.1951 165° South  Level FlightAware Approximate
Wed 05:47:32 PM 19.7430 -78.1633 165° South  Level FlightAware Approximate
Wed 05:48:32 PM 19.6299 -78.1315 165° South  Level FlightAware Approximate
Wed 05:49:32 PM 19.5169 -78.0998 165° South  Level FlightAware Approximate
Wed 05:50:32 PM 19.4038 -78.0681 165° South  Level FlightAware Approximate
Wed 05:51:32 PM 19.2908 -78.0365 165° South  Level FlightAware Approximate
Wed 05:52:32 PM 19.1777 -78.0049 165° South  Level FlightAware Approximate
Wed 05:53:32 PM 19.0647 -77.9734 165° South  Level FlightAware Approximate
Wed 05:54:32 PM 18.9516 -77.9419 165° South  Level FlightAware Approximate
Wed 05:55:32 PM 18.8385 -77.9105 165° South  Level FlightAware Approximate
Wed 05:56:32 PM 18.7255 -77.8791 165° South  Level FlightAware Approximate
Wed 05:57:32 PM 18.6124 -77.8477 165° South  Level FlightAware Approximate
Wed 05:58:32 PM 18.4993 -77.8164 165° South  Level FlightAware Approximate
Wed 05:59:32 PM 18.3862 -77.7851 165° South  Level FlightAware Approximate
Wed 06:00:32 PM 18.2731 -77.7538 165° South  Level FlightAware Approximate
Wed 06:01:32 PM 18.1600 -77.7226 165° South  Level FlightAware Approximate
Wed 06:02:32 PM 18.0469 -77.6915 165° South  Level FlightAware Approximate
Wed 06:03:32 PM 17.9338 -77.6604 165° South  Level FlightAware Approximate
Wed 06:04:32 PM 17.8207 -77.6293 167° South  Level FlightAware Approximate
Wed 06:05:32 PM 17.7092 -77.6025 173° South  Level FlightAware Approximate
Wed 06:06:32 PM 17.5933 -77.5869 173° South  Level FlightAware Approximate
Wed 06:07:32 PM 17.4773 -77.5712 173° South  Level FlightAware Approximate
Wed 06:08:32 PM 17.3613 -77.5556 173° South  Level FlightAware Approximate
Wed 06:09:32 PM 17.2453 -77.5400 173° South  Level FlightAware Approximate
Wed 06:10:32 PM 17.1294 -77.5244 173° South  Level FlightAware Approximate
Wed 06:11:32 PM 17.0134 -77.5089 173° South  Level FlightAware Approximate
Wed 06:12:32 PM 16.8974 -77.4933 173° South  Level FlightAware Approximate
Wed 06:13:32 PM 16.7815 -77.4778 173° South  Level FlightAware Approximate
Wed 06:14:32 PM 16.6655 -77.4623 173° South  Level FlightAware Approximate
Wed 06:15:32 PM 16.5495 -77.4468 173° South  Level FlightAware Approximate
Wed 06:16:32 PM 16.4335 -77.4314 173° South  Level FlightAware Approximate
Wed 06:17:32 PM 16.3175 -77.4159 173° South  Level FlightAware Approximate
Wed 06:18:32 PM 16.2016 -77.4005 173° South  Level FlightAware Approximate
Wed 06:19:32 PM 16.0856 -77.3851 173° South  Level FlightAware Approximate
Wed 06:20:32 PM 15.9696 -77.3697 173° South  Level FlightAware Approximate
Wed 06:21:32 PM 15.8536 -77.3543 173° South  Level FlightAware Approximate
Wed 06:22:32 PM 15.7376 -77.3390 173° South  Level FlightAware Approximate
Wed 06:23:32 PM 15.6216 -77.3236 173° South  Level FlightAware Approximate
Wed 06:24:32 PM 15.5057 -77.3083 173° South  Level FlightAware Approximate
Wed 06:25:32 PM 15.3897 -77.2930 173° South  Level FlightAware Approximate
Wed 06:26:32 PM 15.2737 -77.2777 173° South  Level FlightAware Approximate
Wed 06:27:32 PM 15.1577 -77.2624 174° South  Level FlightAware Approximate
Wed 06:28:32 PM 15.0414 -77.2501 174° South  Level FlightAware Approximate
Wed 06:29:32 PM 14.9251 -77.2377 174° South  Level FlightAware Approximate
Wed 06:30:32 PM 14.8088 -77.2254 174° South  Level FlightAware Approximate
Wed 06:31:32 PM 14.6924 -77.2131 174° South  Level FlightAware Approximate
Wed 06:32:32 PM 14.5761 -77.2008 174° South  Level FlightAware Approximate
Wed 06:33:32 PM 14.4598 -77.1885 174° South  Level FlightAware Approximate
Wed 06:34:32 PM 14.3435 -77.1762 174° South  Level FlightAware Approximate
Wed 06:35:32 PM 14.2272 -77.1639 174° South  Level FlightAware Approximate
Wed 06:36:32 PM 14.1109 -77.1517 174° South  Level FlightAware Approximate
Wed 06:37:32 PM 13.9946 -77.1394 174° South  Level FlightAware Approximate
Wed 06:38:32 PM 13.8782 -77.1272 174° South  Level FlightAware Approximate
Wed 06:39:32 PM 13.7619 -77.1150 174° South  Level FlightAware Approximate
Wed 06:40:32 PM 13.6456 -77.1028 174° South  Level FlightAware Approximate
Wed 06:41:32 PM 13.5293 -77.0906 174° South  Level FlightAware Approximate
Wed 06:42:32 PM 13.4130 -77.0784 174° South  Level FlightAware Approximate
Wed 06:43:32 PM 13.2966 -77.0662 174° South  Level FlightAware Approximate
Wed 06:44:32 PM 13.1803 -77.0541 174° South  Level FlightAware Approximate
Wed 06:45:32 PM 13.0640 -77.0419 174° South  Level FlightAware Approximate
Wed 06:46:32 PM 12.9477 -77.0298 174° South  Level FlightAware Approximate
Wed 06:47:32 PM 12.8314 -77.0177 174° South  Level FlightAware Approximate
Wed 06:48:32 PM 12.7150 -77.0056 174° South  Level FlightAware Approximate
Wed 06:49:32 PM 12.5987 -76.9935 174° South  Level FlightAware Approximate
Wed 06:50:32 PM 12.4824 -76.9814 174° South  Level FlightAware Approximate
Wed 06:51:32 PM 12.3661 -76.9693 174° South  Level FlightAware Approximate
Wed 06:52:32 PM 12.2497 -76.9572 174° South  Level FlightAware Approximate
Wed 06:53:32 PM 12.1334 -76.9452 174° South  Level FlightAware Approximate
Wed 06:54:32 PM 12.0171 -76.9331 174° South  Level FlightAware Approximate
Wed 06:55:32 PM 11.9008 -76.9211 174° South  Level FlightAware Approximate
Wed 06:56:32 PM 11.7844 -76.9090 174° South  Level FlightAware Approximate
Wed 06:57:32 PM 11.6681 -76.8970 174° South  Level FlightAware Approximate
Wed 06:58:32 PM 11.5518 -76.8850 174° South  Level FlightAware Approximate
Wed 06:59:32 PM 11.4354 -76.8730 174° South  Level FlightAware Approximate
Wed 07:00:32 PM 11.3191 -76.8610 174° South  Level FlightAware Approximate
Wed 07:01:32 PM 11.2028 -76.8491 174° South  Level FlightAware Approximate
Wed 07:02:32 PM 11.0864 -76.8371 174° South  Level FlightAware Approximate
Wed 07:03:32 PM 10.9701 -76.8251 174° South  Level FlightAware Approximate
Wed 07:04:32 PM 10.8538 -76.8132 174° South  Level FlightAware Approximate
Wed 07:05:32 PM 10.7374 -76.8012 174° South  Level FlightAware Approximate
Wed 07:06:32 PM 10.6211 -76.7893 174° South  Level FlightAware Approximate
Wed 07:07:32 PM 10.5048 -76.7774 174° South  Level FlightAware Approximate
Wed 07:08:32 PM 10.3885 -76.7655 174° South  Level FlightAware Approximate
Wed 07:09:32 PM 10.2721 -76.7536 174° South  Level FlightAware Approximate
Wed 07:10:32 PM 10.1558 -76.7417 174° South  Level FlightAware Approximate
Wed 07:11:32 PM 10.0395 -76.7298 174° South  Level FlightAware Approximate
Wed 07:12:32 PM 9.9231 -76.7179 174° South  Level FlightAware Approximate
Wed 07:13:32 PM 9.8068 -76.7060 174° South  Level FlightAware Approximate
Wed 07:14:32 PM 9.6904 -76.6942 174° South  Level FlightAware Approximate
Wed 07:15:32 PM 9.5741 -76.6823 175° South  Level FlightAware Approximate
Wed 07:16:32 PM 9.4577 -76.6714 175° South  Level FlightAware Approximate
Wed 07:17:32 PM 9.3413 -76.6605 175° South  Level FlightAware Approximate
Wed 07:18:32 PM 9.2248 -76.6497 175° South  Level FlightAware Approximate
Wed 07:19:32 PM 9.1084 -76.6388 175° South  Level FlightAware Approximate
Wed 07:20:32 PM 8.9920 -76.6279 175° South  Level FlightAware Approximate
Wed 07:21:32 PM 8.8755 -76.6170 175° South  Level FlightAware Approximate
Wed 07:22:32 PM 8.7591 -76.6062 175° South  Level FlightAware Approximate
Wed 07:23:32 PM 8.6427 -76.5954 175° South  Level FlightAware Approximate
Wed 07:24:32 PM 8.5262 -76.5845 175° South  Level FlightAware Approximate
Wed 07:25:32 PM 8.4098 -76.5737 175° South  Level FlightAware Approximate
Wed 07:26:32 PM 8.2934 -76.5629 175° South  Level FlightAware Approximate
Wed 07:27:32 PM 8.1770 -76.5520 177° South  Level FlightAware Approximate
Wed 07:28:32 PM 8.0601 -76.5469 177° South  Level FlightAware Approximate
Wed 07:29:32 PM 7.9433 -76.5417 177° South  Level FlightAware Approximate
Wed 07:30:32 PM 7.8265 -76.5365 177° South  Level FlightAware Approximate
Wed 07:31:32 PM 7.7097 -76.5313 177° South  Level FlightAware Approximate
Wed 07:32:32 PM 7.5929 -76.5262 177° South  Level FlightAware Approximate
Wed 07:33:32 PM 7.4761 -76.5210 177° South  Level FlightAware Approximate
Wed 07:34:32 PM 7.3593 -76.5158 177° South  Level FlightAware Approximate
Wed 07:35:32 PM 7.2425 -76.5106 177° South  Level FlightAware Approximate
Wed 07:36:32 PM 7.1257 -76.5055 177° South  Level FlightAware Approximate
Wed 07:37:32 PM 7.0089 -76.5003 177° South  Level FlightAware Approximate
Wed 07:38:32 PM 6.8920 -76.4952 177° South  Level FlightAware Approximate
Wed 07:39:32 PM 6.7752 -76.4900 177° South  Level FlightAware Approximate
Wed 07:40:32 PM 6.6521 -76.4846 177° South  Level FlightAware Approximate
Wed 07:41:32 PM 6.5290 -76.4791 177° South  Level FlightAware Approximate
Wed 07:42:32 PM 6.4059 -76.4737 177° South  Level FlightAware Approximate
Wed 07:43:32 PM 6.2828 -76.4683 177° South  Level FlightAware Approximate
Wed 07:44:32 PM 6.1596 -76.4629 177° South  Level FlightAware Approximate
Wed 07:45:32 PM 6.0365 -76.4575 177° South  Level FlightAware Approximate
Wed 07:46:32 PM 5.9134 -76.4521 177° South  Level FlightAware Approximate
Wed 07:47:32 PM 5.7903 -76.4466 177° South  Level FlightAware Approximate
Wed 07:48:32 PM 5.6672 -76.4412 177° South  Level FlightAware Approximate
Wed 07:49:32 PM 5.5440 -76.4358 177° South  Level FlightAware Approximate
Wed 07:50:32 PM 5.4209 -76.4304 177° South  Level FlightAware Approximate
Wed 07:51:32 PM 5.2978 -76.4250 177° South  Level FlightAware Approximate
Wed 07:52:32 PM 5.1747 -76.4196 178° South  Level FlightAware Approximate
Wed 07:53:32 PM 5.0515 -76.4142 178° South  Level FlightAware Approximate
Wed 07:54:32 PM 4.9284 -76.4088 177° South  Level FlightAware Approximate
Wed 07:55:32 PM 4.8053 -76.4034 178° South  Level FlightAware Approximate
Wed 07:56:32 PM 4.6822 -76.3980 177° South  Level FlightAware Approximate
Wed 07:57:32 PM 4.5591 -76.3926 178° South  Level FlightAware Approximate
Wed 07:58:32 PM 4.4359 -76.3873 177° South  Level FlightAware Approximate
Wed 07:59:32 PM 4.3128 -76.3819 178° South  Level FlightAware Approximate
Wed 08:00:32 PM 4.1897 -76.3765 178° South  Level FlightAware Approximate

Login

Don't have an account? Register now (free) for customized features, flight alerts, and more!